Time;durP1;ratioP1;P1;durP2;ratioP2;P2;SDS_P1;SDS_P2;PMS_P1;PMS_P2;Temp;Humidity;BMP_temperature;BMP_pressure;BME280_temperature;BME280_humidity;BME280_pressure;Samples;Min_cycle;Max_cycle;Signal;HPM_P1;HPM_P2
2023/09/22 00:01:33;;;;;;;4.80;3.17;;;12.90;99.90;;;;;;5023830;28;20116;-82
2023/09/22 00:03:59;;;;;;;8.68;3.55;;;12.90;99.90;;;;;;5033016;28;20059;-82
2023/09/22 00:06:24;;;;;;;8.38;3.38;;;12.80;99.90;;;;;;5023948;28;20021;-82
2023/09/22 00:08:50;;;;;;;3.92;2.97;;;12.70;99.90;;;;;;5030715;28;20132;-82
2023/09/22 00:11:17;;;;;;;5.78;4.35;;;12.70;99.90;;;;;;5010323;28;20060;-82
2023/09/22 00:13:43;;;;;;;5.03;3.67;;;12.80;99.90;;;;;;5010755;28;20031;-82
2023/09/22 00:16:09;;;;;;;8.13;3.90;;;12.80;99.90;;;;;;5017166;28;20033;-82
2023/09/22 00:18:35;;;;;;;5.75;3.80;;;12.70;99.90;;;;;;5012206;28;20119;-82
2023/09/22 00:21:26;;;;;;;4.97;3.53;;;12.70;99.90;;;;;;5035962;28;20457;-82
2023/09/22 00:23:51;;;;;;;3.58;3.25;;;12.70;99.90;;;;;;5031250;28;20119;-82
2023/09/22 00:26:17;;;;;;;6.35;3.90;;;12.70;99.90;;;;;;5027079;28;20453;-82
2023/09/22 00:28:43;;;;;;;8.65;3.97;;;12.70;99.90;;;;;;5029163;28;20477;-82
2023/09/22 00:31:09;;;;;;;7.95;4.10;;;12.70;99.90;;;;;;5034583;28;20087;-82
2023/09/22 00:33:35;;;;;;;5.38;4.68;;;12.70;99.90;;;;;;5021673;28;20025;-82
2023/09/22 00:36:02;;;;;;;4.07;3.42;;;12.70;99.90;;;;;;5031839;28;20543;-82
2023/09/22 00:38:28;;;;;;;7.05;4.45;;;12.70;99.90;;;;;;5023902;28;20083;-82
2023/09/22 00:40:54;;;;;;;4.55;3.67;;;12.60;99.90;;;;;;5038123;28;20033;-82
2023/09/22 00:43:19;;;;;;;11.55;5.10;;;12.70;99.90;;;;;;5026842;28;20423;-82
2023/09/22 00:45:50;;;;;;;7.95;5.20;;;12.70;99.90;;;;;;5011950;28;20080;-83
2023/09/22 00:48:24;;;;;;;6.07;4.50;;;12.70;99.90;;;;;;5034270;28;20083;-82
2023/09/22 00:50:52;;;;;;;15.15;4.68;;;12.70;99.90;;;;;;5037650;28;20033;-83
2023/09/22 00:53:18;;;;;;;6.32;4.80;;;12.70;99.90;;;;;;5022970;28;20511;-83
2023/09/22 00:55:46;;;;;;;6.70;4.63;;;12.70;99.90;;;;;;5028057;28;20755;-83
2023/09/22 00:58:12;;;;;;;7.25;4.72;;;12.70;99.90;;;;;;5032515;28;20128;-82
2023/09/22 01:00:40;;;;;;;7.90;4.25;;;12.70;99.90;;;;;;5030140;28;20116;-82
2023/09/22 01:03:06;;;;;;;6.25;4.20;;;12.70;99.90;;;;;;5046103;28;20033;-83
2023/09/22 01:05:33;;;;;;;6.40;3.45;;;12.60;99.90;;;;;;5021086;28;20036;-81
2023/09/22 01:08:00;;;;;;;8.90;4.72;;;12.60;99.90;;;;;;5017797;28;20022;-82
2023/09/22 01:10:42;;;;;;;8.18;4.15;;;12.60;99.90;;;;;;5027588;28;20034;-82
2023/09/22 01:13:09;;;;;;;4.78;3.47;;;12.50;99.90;;;;;;5032439;28;20450;-82
2023/09/22 01:15:41;;;;;;;5.57;3.35;;;12.50;99.90;;;;;;5020304;28;20787;-82
2023/09/22 01:18:07;;;;;;;7.95;3.92;;;12.50;99.90;;;;;;5032621;28;20035;-82
2023/09/22 01:20:45;;;;;;;5.30;3.35;;;12.50;99.90;;;;;;5025562;28;20087;-82
2023/09/22 01:23:12;;;;;;;4.85;3.33;;;12.50;99.90;;;;;;5036761;28;20119;-82
2023/09/22 01:25:46;;;;;;;10.05;3.92;;;12.50;99.90;;;;;;5025904;28;20045;-82
2023/09/22 01:28:12;;;;;;;5.68;4.15;;;12.50;99.90;;;;;;5034463;28;20047;-82
2023/09/22 01:30:42;;;;;;;7.38;4.45;;;12.50;99.90;;;;;;5032030;28;20028;-82
2023/09/22 01:33:08;;;;;;;5.50;3.75;;;12.40;99.90;;;;;;5030089;28;20049;-82
2023/09/22 01:35:35;;;;;;;5.57;3.42;;;12.40;99.90;;;;;;5038056;28;20045;-82
2023/09/22 01:38:16;;;;;;;4.75;3.42;;;12.40;99.90;;;;;;5041290;28;20033;-83
2023/09/22 01:40:42;;;;;;;6.10;3.53;;;12.40;99.90;;;;;;5033969;28;20443;-83
2023/09/22 01:43:08;;;;;;;9.48;3.38;;;12.30;99.90;;;;;;5039956;28;20039;-82
2023/09/22 01:45:34;;;;;;;5.45;3.55;;;12.40;99.90;;;;;;5030533;28;20556;-82
2023/09/22 01:48:00;;;;;;;4.93;3.17;;;12.30;99.90;;;;;;5039721;28;20021;-82
2023/09/22 01:50:26;;;;;;;4.15;3.60;;;12.30;99.90;;;;;;5034774;28;20021;-82
2023/09/22 01:52:53;;;;;;;8.82;3.80;;;12.20;99.90;;;;;;5033621;28;20435;-82
2023/09/22 01:55:20;;;;;;;7.10;4.00;;;12.20;99.90;;;;;;5030901;28;20079;-83
2023/09/22 01:57:50;;;;;;;4.80;3.65;;;12.10;99.90;;;;;;5045684;28;20035;-83
2023/09/22 02:00:18;;;;;;;8.32;4.18;;;12.10;99.90;;;;;;5050521;28;20033;-83
2023/09/22 02:02:45;;;;;;;6.15;4.70;;;12.10;99.90;;;;;;5023496;28;20052;-82
2023/09/22 02:05:16;;;;;;;8.25;6.05;;;12.10;99.90;;;;;;5018679;28;20067;-82
2023/09/22 02:07:42;;;;;;;9.55;7.75;;;12.20;99.90;;;;;;5024680;28;20060;-83
2023/09/22 02:10:13;;;;;;;13.68;8.80;;;12.20;99.90;;;;;;5034706;28;20049;-82
2023/09/22 02:13:13;;;;;;;13.13;9.80;;;12.30;99.90;;;;;;5037088;28;20036;-82
2023/09/22 02:15:38;;;;;;;14.15;9.50;;;12.30;99.90;;;;;;5020490;28;20477;-82
2023/09/22 02:18:04;;;;;;;15.98;11.15;;;12.20;99.90;;;;;;5036374;28;20024;-83
2023/09/22 02:20:31;;;;;;;10.23;9.13;;;12.20;99.90;;;;;;5026215;28;20021;-82
2023/09/22 02:22:58;;;;;;;11.07;8.70;;;12.20;99.90;;;;;;5033275;28;20044;-83
2023/09/22 02:25:24;;;;;;;10.68;8.65;;;12.20;99.90;;;;;;5046522;28;20030;-83
2023/09/22 02:27:53;;;;;;;12.52;7.90;;;12.20;99.90;;;;;;5040736;28;20030;-83
2023/09/22 02:30:19;;;;;;;12.15;9.13;;;12.10;99.90;;;;;;5034654;28;20060;-83
2023/09/22 02:32:48;;;;;;;11.10;8.90;;;12.10;99.90;;;;;;5047441;28;20049;-83
2023/09/22 02:35:18;;;;;;;11.32;9.88;;;12.00;99.90;;;;;;5023528;28;20037;-83
2023/09/22 02:37:44;;;;;;;11.98;7.97;;;11.90;99.90;;;;;;5034527;28;20080;-83
2023/09/22 02:40:13;;;;;;;14.98;8.70;;;11.90;99.90;;;;;;5025405;28;20063;-82
2023/09/22 02:42:39;;;;;;;11.05;7.90;;;11.90;99.90;;;;;;5015148;28;20056;-82
2023/09/22 02:45:06;;;;;;;9.82;7.95;;;12.00;99.90;;;;;;5027184;28;20059;-83
2023/09/22 02:47:32;;;;;;;14.10;8.35;;;12.00;99.90;;;;;;5020823;28;20025;-83
2023/09/22 02:49:58;;;;;;;13.75;8.05;;;12.00;99.90;;;;;;5021283;28;20036;-83
2023/09/22 02:52:23;;;;;;;10.27;8.25;;;12.00;99.90;;;;;;5021805;28;20033;-83
2023/09/22 02:54:57;;;;;;;9.88;8.10;;;12.00;99.90;;;;;;5023790;28;20041;-83
2023/09/22 02:57:23;;;;;;;10.75;8.48;;;12.00;99.90;;;;;;5035056;28;20044;-84
2023/09/22 02:59:53;;;;;;;12.75;8.80;;;12.00;99.90;;;;;;5024993;28;20354;-83
2023/09/22 03:02:20;;;;;;;11.07;9.05;;;11.90;99.90;;;;;;5032594;28;20037;-83
2023/09/22 03:04:49;;;;;;;13.10;9.25;;;11.90;99.90;;;;;;5020558;28;20029;-83
2023/09/22 03:07:15;;;;;;;13.88;9.88;;;11.90;99.90;;;;;;5015751;28;20065;-83
2023/09/22 03:09:45;;;;;;;14.23;10.07;;;11.90;99.90;;;;;;5014167;28;20049;-82
2023/09/22 03:12:20;;;;;;;23.45;10.43;;;12.00;99.90;;;;;;5016280;28;20033;-83
2023/09/22 03:14:49;;;;;;;16.25;10.98;;;11.90;99.90;;;;;;5033496;28;20530;-83
2023/09/22 03:17:15;;;;;;;21.00;12.52;;;12.00;99.90;;;;;;5034758;28;20123;-82
2023/09/22 03:19:40;;;;;;;18.98;12.75;;;12.00;99.90;;;;;;5031655;28;20022;-83
2023/09/22 03:22:06;;;;;;;21.77;14.25;;;12.00;99.90;;;;;;5024619;28;20037;-83
2023/09/22 03:24:32;;;;;;;27.45;14.75;;;12.00;99.90;;;;;;5016531;28;20353;-83
2023/09/22 03:26:57;;;;;;;22.65;14.45;;;12.00;99.90;;;;;;5024784;28;20031;-82
2023/09/22 03:29:24;;;;;;;26.17;16.00;;;12.10;99.90;;;;;;5017788;28;20095;-83
2023/09/22 03:31:51;;;;;;;24.27;15.40;;;12.10;99.90;;;;;;5026518;28;20025;-83
2023/09/22 03:34:18;;;;;;;22.73;16.08;;;12.10;99.90;;;;;;5020541;28;20033;-82
2023/09/22 03:36:44;;;;;;;26.50;16.20;;;12.10;99.90;;;;;;5021398;28;20037;-83
2023/09/22 03:39:30;;;;;;;24.38;15.88;;;12.20;99.90;;;;;;5023585;28;20405;-82
2023/09/22 03:41:56;;;;;;;25.70;15.80;;;12.10;99.90;;;;;;5028641;28;20107;-83
2023/09/22 03:44:22;;;;;;;26.20;15.85;;;12.10;99.90;;;;;;5026736;28;20140;-83
2023/09/22 03:46:47;;;;;;;21.30;15.05;;;12.10;99.90;;;;;;5035152;28;20017;-83
2023/09/22 03:49:13;;;;;;;26.08;15.50;;;12.00;99.90;;;;;;5027502;28;20473;-82
2023/09/22 03:51:39;;;;;;;23.17;14.43;;;12.00;99.90;;;;;;5020090;28;20071;-83
2023/09/22 03:54:05;;;;;;;22.50;13.75;;;11.90;99.90;;;;;;5008910;28;20029;-84
2023/09/22 03:56:32;;;;;;;20.83;13.93;;;11.90;99.90;;;;;;5031862;28;20132;-83
2023/09/22 03:58:57;;;;;;;23.85;15.02;;;11.80;99.90;;;;;;5018374;28;20462;-83
2023/09/22 04:01:23;;;;;;;22.52;13.45;;;11.80;99.90;;;;;;5023574;28;20036;-82
2023/09/22 04:03:49;;;;;;;27.35;14.50;;;11.80;99.90;;;;;;5018889;28;20108;-83
2023/09/22 04:06:14;;;;;;;23.17;14.18;;;11.80;99.90;;;;;;5017316;28;20064;-82
2023/09/22 04:08:40;;;;;;;31.17;14.63;;;11.80;99.90;;;;;;5013979;28;20077;-83
2023/09/22 04:11:07;;;;;;;23.05;14.98;;;11.80;99.90;;;;;;5031461;28;20029;-83
2023/09/22 04:13:32;;;;;;;23.52;15.20;;;11.80;99.90;;;;;;5033626;28;20103;-82
2023/09/22 04:16:03;;;;;;;28.98;16.20;;;11.70;99.90;;;;;;5035087;28;20027;-83
2023/09/22 04:18:29;;;;;;;23.23;15.02;;;11.70;99.90;;;;;;5008029;28;20484;-83
2023/09/22 04:21:01;;;;;;;26.75;15.93;;;11.70;99.90;;;;;;5018253;28;20029;-83
2023/09/22 04:23:28;;;;;;;24.85;16.48;;;11.70;99.90;;;;;;5040255;28;20477;-83
2023/09/22 04:25:54;;;;;;;36.63;19.88;;;11.60;99.90;;;;;;5019798;28;20038;-83
2023/09/22 04:28:24;;;;;;;35.38;19.38;;;11.60;99.90;;;;;;5025829;28;20773;-83
2023/09/22 04:30:50;;;;;;;26.45;16.67;;;11.60;99.90;;;;;;5039141;28;20101;-83
2023/09/22 04:33:17;;;;;;;30.55;17.48;;;11.50;99.90;;;;;;5019273;28;20029;-83
2023/09/22 04:35:43;;;;;;;35.35;18.75;;;11.50;99.90;;;;;;5048221;28;20078;-83
2023/09/22 04:38:31;;;;;;;34.15;18.25;;;11.50;99.90;;;;;;5022092;28;20060;-83
2023/09/22 04:40:57;;;;;;;32.08;17.10;;;11.50;99.90;;;;;;5031179;28;20525;-83
2023/09/22 04:43:23;;;;;;;35.42;15.73;;;11.50;99.90;;;;;;5039016;28;20167;-83
2023/09/22 04:45:49;;;;;;;27.98;16.40;;;11.50;99.90;;;;;;5017670;28;20128;-83
2023/09/22 04:48:16;;;;;;;28.48;13.80;;;11.60;99.90;;;;;;5034124;28;20508;-83
2023/09/22 04:50:42;;;;;;;26.33;15.18;;;11.50;99.90;;;;;;5028633;28;20029;-83
2023/09/22 04:53:09;;;;;;;22.70;12.52;;;11.50;99.90;;;;;;5014092;28;20033;-82
2023/09/22 04:55:38;;;;;;;26.25;12.80;;;11.50;99.90;;;;;;5049881;28;20029;-83
2023/09/22 04:58:11;;;;;;;20.52;12.10;;;11.50;99.90;;;;;;5029402;28;20033;-83
2023/09/22 05:00:37;;;;;;;22.08;10.85;;;11.50;99.90;;;;;;5025089;28;20044;-83
2023/09/22 05:03:07;;;;;;;20.48;10.50;;;11.50;99.90;;;;;;5031043;28;20030;-82
2023/09/22 05:05:33;;;;;;;21.17;9.75;;;11.50;99.90;;;;;;5030520;28;20057;-82
2023/09/22 05:07:59;;;;;;;16.77;9.50;;;11.60;99.90;;;;;;5028619;28;20024;-83
2023/09/22 05:10:25;;;;;;;18.33;9.07;;;11.70;99.90;;;;;;5027481;28;20056;-83
2023/09/22 05:12:51;;;;;;;16.35;7.85;;;11.70;99.90;;;;;;5019401;28;20037;-84
2023/09/22 05:15:17;;;;;;;11.00;5.63;;;11.80;99.90;;;;;;5036953;28;20060;-84
2023/09/22 05:17:43;;;;;;;12.70;6.15;;;11.70;99.90;;;;;;5020334;28;20029;-83
2023/09/22 05:20:12;;;;;;;12.32;7.55;;;11.70;99.90;;;;;;5030525;28;20040;-83
2023/09/22 05:22:38;;;;;;;15.82;10.25;;;11.70;99.90;;;;;;5031073;28;20548;-83
2023/09/22 05:25:05;;;;;;;19.08;11.10;;;11.70;99.90;;;;;;5017311;28;20725;-84
2023/09/22 05:27:31;;;;;;;16.25;10.15;;;11.80;99.90;;;;;;5022301;28;20037;-83
2023/09/22 05:29:57;;;;;;;19.30;11.35;;;11.80;99.90;;;;;;5021612;28;20392;-83
2023/09/22 05:32:32;;;;;;;16.70;11.65;;;11.90;99.90;;;;;;5030694;28;20025;-84
2023/09/22 05:34:58;;;;;;;19.30;11.75;;;11.90;99.90;;;;;;5045498;28;20083;-84
2023/09/22 05:37:24;;;;;;;20.02;11.50;;;11.90;99.90;;;;;;5031437;28;20063;-83
2023/09/22 05:39:51;;;;;;;16.98;12.45;;;11.90;99.90;;;;;;5038326;28;20057;-84
2023/09/22 05:42:44;;;;;;;17.48;11.82;;;12.00;99.90;;;;;;5017562;28;20044;-84
2023/09/22 05:45:10;;;;;;;16.65;11.88;;;12.00;99.90;;;;;;5029449;28;20040;-84
2023/09/22 05:47:36;;;;;;;26.33;15.90;;;12.00;99.90;;;;;;5025400;28;20029;-83
2023/09/22 05:50:02;;;;;;;25.98;16.77;;;12.00;99.90;;;;;;5013979;28;20023;-83
2023/09/22 05:52:29;;;;;;;29.23;17.48;;;12.00;99.90;;;;;;5040592;28;20033;-83
2023/09/22 05:54:56;;;;;;;30.70;16.60;;;12.00;99.90;;;;;;5001380;28;20499;-84
2023/09/22 05:57:37;;;;;;;22.88;15.15;;;12.10;99.90;;;;;;5045323;28;20443;-84
2023/09/22 06:00:09;;;;;;;19.45;14.25;;;12.10;99.90;;;;;;5019324;28;20029;-84
2023/09/22 06:02:35;;;;;;;24.23;12.85;;;12.20;99.90;;;;;;5035512;28;20596;-83
2023/09/22 06:05:01;;;;;;;21.80;13.20;;;12.10;99.90;;;;;;5022506;28;20025;-83
2023/09/22 06:07:28;;;;;;;20.98;12.57;;;12.10;99.90;;;;;;5041102;28;20036;-83
2023/09/22 06:09:54;;;;;;;17.55;11.65;;;12.20;99.90;;;;;;5025321;28;20025;-84
2023/09/22 06:12:20;;;;;;;18.02;11.27;;;12.20;99.90;;;;;;5026361;28;20876;-84
2023/09/22 06:14:45;;;;;;;15.68;11.02;;;12.10;99.90;;;;;;5020915;28;20036;-84
2023/09/22 06:17:11;;;;;;;12.82;8.70;;;12.10;99.90;;;;;;5033685;28;20068;-83
2023/09/22 06:19:36;;;;;;;13.80;8.98;;;12.10;99.90;;;;;;5002834;28;20052;-83
2023/09/22 06:22:04;;;;;;;13.80;8.88;;;12.10;99.90;;;;;;5032668;28;20463;-83
2023/09/22 06:24:30;;;;;;;11.10;8.43;;;12.10;99.90;;;;;;5032282;28;20423;-84
2023/09/22 06:26:56;;;;;;;8.88;6.35;;;12.10;99.90;;;;;;5037080;28;20035;-84
2023/09/22 06:29:38;;;;;;;12.45;6.45;;;12.10;99.90;;;;;;5024674;28;20372;-84
2023/09/22 06:32:04;;;;;;;10.30;6.75;;;12.10;99.90;;;;;;5042529;28;20103;-84
2023/09/22 06:34:31;;;;;;;11.65;7.30;;;12.10;99.90;;;;;;5033772;28;20029;-84
2023/09/22 06:36:57;;;;;;;12.90;7.97;;;12.10;99.90;;;;;;5029903;28;20029;-84
2023/09/22 06:39:22;;;;;;;13.25;8.00;;;12.10;99.90;;;;;;5014396;28;20530;-84
2023/09/22 06:41:48;;;;;;;12.27;7.93;;;12.10;99.90;;;;;;5022254;28;20033;-84
2023/09/22 06:44:16;;;;;;;11.73;7.70;;;12.10;99.90;;;;;;5032108;28;20032;-84
2023/09/22 06:46:42;;;;;;;12.27;7.43;;;12.10;99.90;;;;;;5023860;28;20464;-84
2023/09/22 06:49:08;;;;;;;11.48;8.40;;;12.20;99.90;;;;;;5032071;28;20392;-84
2023/09/22 06:51:36;;;;;;;14.63;9.25;;;12.20;99.90;;;;;;5026786;28;20071;-84
2023/09/22 06:54:03;;;;;;;21.73;9.18;;;12.30;99.90;;;;;;5032514;28;20065;-84
2023/09/22 06:56:29;;;;;;;11.48;7.00;;;12.40;99.90;;;;;;5033156;28;20040;-83
2023/09/22 06:58:54;;;;;;;15.88;7.78;;;12.40;99.90;;;;;;5048577;28;20029;-84
2023/09/22 07:01:20;;;;;;;9.35;6.78;;;12.30;99.90;;;;;;5035858;28;20033;-84
2023/09/22 07:03:48;;;;;;;11.55;7.00;;;12.20;99.90;;;;;;5035077;28;20078;-84
2023/09/22 07:06:18;;;;;;;9.63;6.57;;;12.20;99.90;;;;;;5023725;28;20033;-83
2023/09/22 07:08:46;;;;;;;10.02;6.32;;;12.30;99.90;;;;;;5039979;28;20151;-83
2023/09/22 07:11:13;;;;;;;10.25;6.38;;;12.30;99.90;;;;;;5034716;28;20060;-83
2023/09/22 07:13:42;;;;;;;11.05;7.07;;;12.30;99.90;;;;;;5042717;28;20028;-83
2023/09/22 07:16:08;;;;;;;11.23;7.78;;;12.30;99.90;;;;;;5020415;28;20037;-83
2023/09/22 07:18:34;;;;;;;11.02;6.35;;;12.50;99.90;;;;;;5030135;28;20476;-83
2023/09/22 07:21:00;;;;;;;9.82;5.82;;;12.60;99.90;;;;;;5028851;28;20037;-84
2023/09/22 07:23:26;;;;;;;9.73;5.43;;;12.60;99.90;;;;;;5046183;28;20021;-84
2023/09/22 07:26:03;;;;;;;8.27;4.70;;;12.70;99.90;;;;;;5015680;28;20721;-83
2023/09/22 07:28:30;;;;;;;8.07;4.75;;;12.70;99.90;;;;;;5042196;28;20026;-83
2023/09/22 07:30:56;;;;;;;6.28;4.32;;;12.80;99.90;;;;;;5048792;28;20100;-83
2023/09/22 07:33:32;;;;;;;5.97;4.90;;;12.80;99.90;;;;;;5030526;28;20045;-83
2023/09/22 07:35:58;;;;;;;11.65;6.00;;;12.80;99.90;;;;;;5000500;28;20484;-84
2023/09/22 07:38:25;;;;;;;11.90;6.03;;;12.70;99.90;;;;;;5032185;28;20095;-83
2023/09/22 07:40:51;;;;;;;10.02;5.65;;;12.70;99.90;;;;;;5027949;28;20035;-83
2023/09/22 07:43:16;;;;;;;9.75;6.10;;;12.70;99.90;;;;;;5004923;28;20040;-84
2023/09/22 07:45:42;;;;;;;7.82;6.68;;;12.60;99.90;;;;;;5033695;28;20032;-84
2023/09/22 07:48:08;;;;;;;11.90;6.82;;;12.60;99.90;;;;;;5023551;28;20443;-83
2023/09/22 07:50:36;;;;;;;12.15;6.70;;;12.70;99.90;;;;;;5037819;28;20448;-84
2023/09/22 07:53:02;;;;;;;10.45;6.97;;;13.00;99.90;;;;;;5029927;28;20028;-84
2023/09/22 07:55:29;;;;;;;9.63;6.50;;;13.20;99.90;;;;;;5035402;28;20032;-83
2023/09/22 07:57:54;;;;;;;10.90;6.13;;;13.20;99.90;;;;;;5019290;28;20028;-83
2023/09/22 08:00:20;;;;;;;6.97;5.57;;;13.20;99.90;;;;;;5021989;28;20025;-84
2023/09/22 08:02:46;;;;;;;10.13;5.78;;;13.30;99.90;;;;;;5032946;28;20025;-83
2023/09/22 08:05:17;;;;;;;7.20;5.70;;;13.50;99.90;;;;;;5040103;28;20392;-84
2023/09/22 08:07:43;;;;;;;7.40;4.78;;;13.60;99.90;;;;;;5016587;28;20700;-83
2023/09/22 08:10:10;;;;;;;6.55;4.88;;;13.80;99.90;;;;;;5028692;28;20106;-85
2023/09/22 08:12:37;;;;;;;10.15;4.40;;;13.90;99.90;;;;;;5034467;28;20039;-84
2023/09/22 08:15:48;;;;;;;6.10;4.25;;;13.90;99.90;;;;;;5029599;28;20024;-84
2023/09/22 08:18:13;;;;;;;4.53;3.85;;;13.80;99.90;;;;;;5034857;28;20025;-84
2023/09/22 08:20:40;;;;;;;4.97;2.97;;;13.70;99.90;;;;;;5023899;28;20036;-84
2023/09/22 08:23:06;;;;;;;3.55;2.90;;;13.60;99.90;;;;;;5041644;28;20034;-84
2023/09/22 08:25:31;;;;;;;4.45;3.53;;;13.60;99.90;;;;;;5018105;28;20167;-85
2023/09/22 08:27:58;;;;;;;7.50;3.63;;;13.60;99.90;;;;;;5016752;28;20025;-85
2023/09/22 08:30:25;;;;;;;9.23;4.43;;;13.50;99.90;;;;;;5031446;28;20026;-85
2023/09/22 08:32:51;;;;;;;8.02;5.03;;;13.40;99.90;;;;;;5015309;28;20057;-85
2023/09/22 08:35:17;;;;;;;9.00;4.50;;;13.40;99.90;;;;;;5021986;28;20025;-85
2023/09/22 08:37:43;;;;;;;7.47;4.53;;;13.50;99.90;;;;;;5031724;28;20388;-84
2023/09/22 08:40:14;;;;;;;9.82;5.13;;;13.60;99.90;;;;;;5024569;28;20021;-85
2023/09/22 08:42:41;;;;;;;6.57;4.60;;;13.90;99.90;;;;;;5040026;28;20400;-85
2023/09/22 08:45:07;;;;;;;4.63;3.60;;;14.20;99.90;;;;;;5010390;28;20029;-84
2023/09/22 08:47:39;;;;;;;14.10;8.63;;;14.60;99.90;;;;;;5018549;28;20033;-85
2023/09/22 08:50:07;;;;;;;12.27;5.53;;;14.70;99.90;;;;;;5014593;28;20033;-85
2023/09/22 08:52:33;;;;;;;7.45;4.10;;;14.70;99.90;;;;;;5011593;28;20580;-84
2023/09/22 08:55:01;;;;;;;10.88;3.33;;;14.40;99.90;;;;;;5030826;28;20031;-84
2023/09/22 08:57:29;;;;;;;8.15;3.83;;;14.10;99.90;;;;;;5028110;28;20026;-85
2023/09/22 08:59:56;;;;;;;6.15;3.20;;;14.00;99.90;;;;;;5032084;28;20484;-84
2023/09/22 09:02:22;;;;;;;5.75;3.15;;;13.90;99.90;;;;;;5016229;28;20140;-85
2023/09/22 09:04:48;;;;;;;5.10;3.03;;;13.80;99.90;;;;;;5040126;28;20057;-84
2023/09/22 09:07:18;;;;;;;9.02;3.50;;;13.90;99.90;;;;;;5028050;28;20076;-84
2023/09/22 09:13:15;;;;;;;3.13;2.33;;;14.50;99.90;;;;;;5026929;28;20033;-84
2023/09/22 09:15:47;;;;;;;9.82;2.40;;;14.90;99.90;;;;;;5013756;28;20030;-84
2023/09/22 09:18:18;;;;;;;11.32;4.43;;;15.20;99.90;;;;;;5028557;28;20523;-84
2023/09/22 09:20:47;;;;;;;6.38;3.53;;;15.20;99.90;;;;;;5032982;28;20032;-84
2023/09/22 09:23:15;;;;;;;3.35;2.58;;;15.10;99.90;;;;;;5029313;28;20079;-84
2023/09/22 09:25:53;;;;;;;4.18;2.63;;;15.10;99.90;;;;;;5033286;28;20548;-85
2023/09/22 09:28:18;;;;;;;4.95;1.95;;;15.10;99.90;;;;;;5030432;28;20733;-84
2023/09/22 09:30:52;;;;;;;3.13;2.20;;;15.30;99.90;;;;;;5012168;28;20037;-84
2023/09/22 09:33:23;;;;;;;4.32;1.90;;;15.30;99.90;;;;;;5021823;28;20112;-85
2023/09/22 09:35:49;;;;;;;5.78;2.75;;;15.40;99.90;;;;;;5013945;28;20779;-84
2023/09/22 09:38:17;;;;;;;4.60;2.47;;;15.50;99.90;;;;;;5019930;28;20782;-84
2023/09/22 09:40:43;;;;;;;7.43;2.50;;;15.70;99.90;;;;;;5033448;28;20037;-84
2023/09/22 09:43:13;;;;;;;2.95;1.88;;;16.00;99.90;;;;;;5043548;28;20025;-84
2023/09/22 09:45:46;;;;;;;9.07;1.90;;;16.20;99.90;;;;;;5045516;28;20044;-84
2023/09/22 09:48:16;;;;;;;4.68;1.55;;;16.60;99.90;;;;;;5037449;28;20021;-85
2023/09/22 09:50:48;;;;;;;5.63;1.52;;;16.40;99.90;;;;;;5036915;28;20120;-84
2023/09/22 09:53:19;;;;;;;;;;;16.30;99.90;;;;;;5027797;28;20150;-84
2023/09/22 09:55:47;;;;;;;5.57;1.60;;;16.00;99.90;;;;;;5018285;28;19916;-85
2023/09/22 09:58:14;;;;;;;5.10;1.52;;;15.70;99.90;;;;;;5049256;28;20109;-85
2023/09/22 10:00:39;;;;;;;10.68;2.10;;;15.20;99.90;;;;;;5031190;28;20109;-84
2023/09/22 10:03:08;;;;;;;3.95;2.00;;;15.00;99.90;;;;;;5012858;28;20071;-85
2023/09/22 10:05:34;;;;;;;3.00;1.42;;;15.50;99.90;;;;;;5033649;28;20033;-85
2023/09/22 10:08:00;;;;;;;2.97;1.30;;;15.70;99.90;;;;;;5017277;28;20029;-85
2023/09/22 10:10:27;;;;;;;9.52;1.38;;;16.30;99.90;;;;;;5014593;28;20055;-85
2023/09/22 10:12:53;;;;;;;3.28;1.20;;;16.70;99.90;;;;;;5037148;28;20588;-84
2023/09/22 10:15:52;;;;;;;3.35;1.02;;;17.10;99.90;;;;;;5007972;28;20075;-85
2023/09/22 10:18:18;;;;;;;2.50;1.23;;;17.30;99.90;;;;;;5015692;28;20050;-85
2023/09/22 10:20:45;;;;;;;2.90;1.17;;;16.90;99.90;;;;;;5035419;28;20529;-85
2023/09/22 10:23:27;;;;;;;5.05;1.10;;;16.80;99.90;;;;;;5015970;28;20033;-85
2023/09/22 10:26:19;;;;;;;1.60;0.80;;;16.80;99.90;;;;;;5037323;28;20419;-84
2023/09/22 10:28:45;;;;;;;2.08;0.85;;;17.20;99.90;;;;;;5021744;28;20033;-84
2023/09/22 10:31:11;;;;;;;7.03;1.20;;;17.10;99.90;;;;;;5030873;28;20033;-85
2023/09/22 10:33:37;;;;;;;4.10;1.05;;;17.10;99.90;;;;;;5038775;28;20037;-84
2023/09/22 10:36:08;;;;;;;7.38;1.08;;;17.10;99.90;;;;;;5036389;28;20048;-84
2023/09/22 10:39:07;;;;;;;2.83;1.10;;;17.30;99.90;;;;;;5022418;28;20417;-85
2023/09/22 10:41:35;;;;;;;4.65;1.58;;;17.80;99.90;;;;;;4988446;28;20503;-85
2023/09/22 10:44:02;;;;;;;2.83;1.08;;;18.60;99.90;;;;;;5018138;28;20072;-85
2023/09/22 10:46:27;;;;;;;3.17;1.00;;;18.60;99.90;;;;;;5031092;28;20514;-84
2023/09/22 10:48:53;;;;;;;2.53;1.00;;;18.30;99.90;;;;;;5036330;28;20060;-85
2023/09/22 10:51:22;;;;;;;2.55;0.80;;;18.10;99.90;;;;;;5007150;28;20064;-85
2023/09/22 10:54:06;;;;;;;2.78;1.00;;;18.20;99.90;;;;;;5034664;28;20445;-85
2023/09/22 10:56:35;;;;;;;2.72;0.75;;;18.90;99.90;;;;;;5024312;28;20075;-85
2023/09/22 10:59:01;;;;;;;7.65;1.10;;;19.80;99.90;;;;;;5047072;28;20060;-84
2023/09/22 11:01:28;;;;;;;5.78;0.82;;;19.70;99.90;;;;;;5031191;28;20391;-84
2023/09/22 11:03:53;;;;;;;6.43;0.85;;;19.50;99.90;;;;;;5027730;28;20028;-84
2023/09/22 11:06:20;;;;;;;6.13;1.10;;;19.10;99.90;;;;;;5029682;28;20392;-85
2023/09/22 11:08:55;;;;;;;6.05;1.30;;;18.70;99.90;;;;;;5013859;28;20021;-85
2023/09/22 11:11:21;;;;;;;6.47;1.10;;;19.20;99.90;;;;;;5029750;28;20463;-85
2023/09/22 11:13:53;;;;;;;6.35;1.10;;;19.60;99.90;;;;;;5020337;28;20104;-85
2023/09/22 11:16:20;;;;;;;6.78;1.30;;;19.40;99.90;;;;;;5047852;28;20075;-85
2023/09/22 11:18:48;;;;;;;5.88;0.85;;;18.90;99.90;;;;;;5021098;28;20712;-85
2023/09/22 11:21:40;;;;;;;4.22;1.50;;;19.30;99.90;;;;;;5035891;28;20032;-84
2023/09/22 11:24:08;;;;;;;4.85;1.27;;;20.10;99.90;;;;;;5026462;28;20043;-85
2023/09/22 11:26:41;;;;;;;5.60;1.23;;;20.20;99.90;;;;;;5040688;28;20052;-85
2023/09/22 11:29:06;;;;;;;4.82;1.27;;;19.70;99.90;;;;;;5023635;28;20481;-85
2023/09/22 11:31:32;;;;;;;4.03;1.77;;;19.80;99.90;;;;;;5038972;28;20031;-85
2023/09/22 11:34:29;;;;;;;7.78;2.15;;;19.30;99.90;;;;;;5019470;28;20074;-85
2023/09/22 11:36:55;;;;;;;3.58;0.90;;;19.00;99.90;;;;;;5040450;28;20033;-84
2023/09/22 11:39:55;;;;;;;4.57;1.13;;;19.30;99.90;;;;;;5030370;28;20091;-84
2023/09/22 11:42:21;;;;;;;2.15;0.63;;;20.40;99.90;;;;;;5035536;28;20488;-85
2023/09/22 11:44:56;;;;;;;2.42;0.70;;;21.40;99.90;;;;;;5039443;28;20028;-86
2023/09/22 11:47:21;;;;;;;2.10;0.93;;;22.40;99.90;;;;;;5033979;28;20049;-85
2023/09/22 11:49:47;;;;;;;3.55;0.88;;;21.80;99.90;;;;;;5025499;28;20061;-85
2023/09/22 11:52:13;;;;;;;2.78;0.90;;;21.20;99.90;;;;;;5035393;28;20029;-84
2023/09/22 11:54:39;;;;;;;1.95;1.00;;;20.10;99.90;;;;;;5018973;28;20025;-85
2023/09/22 11:57:05;;;;;;;5.03;1.23;;;19.20;99.90;;;;;;5035198;28;20036;-85
2023/09/22 11:59:34;;;;;;;1.95;0.77;;;18.60;99.90;;;;;;5039885;28;20029;-84
2023/09/22 12:02:06;;;;;;;4.00;0.90;;;18.40;99.90;;;;;;5042886;28;20468;-85
2023/09/22 12:04:34;;;;;;;3.42;0.88;;;18.60;99.90;;;;;;5034753;28;20561;-84
2023/09/22 12:07:01;;;;;;;2.90;0.98;;;18.60;99.90;;;;;;5026113;28;20056;-84
2023/09/22 12:09:27;;;;;;;2.55;1.17;;;18.90;99.90;;;;;;5023652;28;20076;-85
2023/09/22 12:11:53;;;;;;;7.72;1.05;;;19.10;99.90;;;;;;5039451;28;20021;-85
2023/09/22 12:14:19;;;;;;;2.65;0.85;;;18.90;99.90;;;;;;5028089;28;20040;-84
2023/09/22 12:16:45;;;;;;;5.45;1.10;;;18.90;99.90;;;;;;5034785;28;20028;-84
2023/09/22 12:19:13;;;;;;;3.83;1.00;;;18.30;99.90;;;;;;5030847;28;20041;-86
2023/09/22 12:21:39;;;;;;;5.32;1.10;;;17.60;99.90;;;;;;5030115;28;20025;-84
2023/09/22 12:24:05;;;;;;;9.13;1.15;;;17.40;99.90;;;;;;5032009;28;20044;-84
2023/09/22 12:26:30;;;;;;;2.92;1.30;;;17.60;99.90;;;;;;5014160;28;20025;-85
2023/09/22 12:29:52;;;;;;;7.97;1.70;;;17.80;99.90;;;;;;5024097;28;20025;-85
2023/09/22 12:32:19;;;;;;;3.13;1.05;;;18.10;99.90;;;;;;5027539;28;20060;-84
2023/09/22 12:34:45;;;;;;;1.98;0.95;;;18.90;99.90;;;;;;5035324;28;20797;-84
2023/09/22 12:37:10;;;;;;;2.38;0.85;;;19.20;99.90;;;;;;5039039;28;20067;-84
2023/09/22 12:39:36;;;;;;;2.25;1.20;;;19.00;99.90;;;;;;5027673;28;20036;-84
2023/09/22 12:42:02;;;;;;;2.38;0.90;;;18.60;99.90;;;;;;5014436;28;20384;-84
2023/09/22 12:44:28;;;;;;;2.83;1.20;;;18.10;99.90;;;;;;5017798;28;20496;-84
2023/09/22 12:46:54;;;;;;;5.55;0.90;;;18.10;99.90;;;;;;5030903;28;20029;-84
2023/09/22 12:49:20;;;;;;;5.38;1.17;;;18.00;99.90;;;;;;5038763;28;20383;-85
2023/09/22 12:51:51;;;;;;;2.00;0.90;;;18.00;99.90;;;;;;5020083;28;20032;-84